Time;durP1;ratioP1;P1;durP2;ratioP2;P2;SDS_P1;SDS_P2;PMS_P1;PMS_P2;Temp;Humidity;BMP_temperature;BMP_pressure;BME280_temperature;BME280_humidity;BME280_pressure;Samples;Min_cycle;Max_cycle;Signal;HPM_P1;HPM_P2
2021/05/22 00:08:21;;;;;;;8.63;2.53;;;;;;;;;;13012648;22;20666;-79
2021/05/22 00:13:26;;;;;;;7.83;2.07;;;;;;;;;;13034750;22;20200;-80
2021/05/22 00:18:33;;;;;;;7.63;2.00;;;;;;;;;;13032043;22;20186;-79
2021/05/22 00:23:41;;;;;;;8.20;1.90;;;;;;;;;;13014097;22;20197;-81
2021/05/22 00:28:45;;;;;;;11.27;2.23;;;;;;;;;;13035770;22;20208;-79
2021/05/22 00:33:49;;;;;;;9.67;1.87;;;;;;;;;;13033213;22;20630;-80
2021/05/22 00:38:54;;;;;;;7.20;1.80;;;;;;;;;;13034474;22;21017;-79
2021/05/22 00:43:58;;;;;;;5.30;1.60;;;;;;;;;;13035012;22;20174;-79
2021/05/22 00:49:03;;;;;;;6.03;2.33;;;;;;;;;;13031253;22;20681;-79
2021/05/22 00:54:07;;;;;;;6.67;1.90;;;;;;;;;;13034434;22;20721;-79
2021/05/22 00:59:13;;;;;;;10.17;2.10;;;;;;;;;;13033644;22;20239;-78
2021/05/22 01:04:21;;;;;;;7.40;2.10;;;;;;;;;;13031151;22;20288;-80
2021/05/22 01:09:27;;;;;;;10.03;1.90;;;;;;;;;;13033812;22;20593;-79
2021/05/22 01:14:34;;;;;;;6.43;1.73;;;;;;;;;;13032833;22;20192;-79
2021/05/22 01:19:42;;;;;;;5.87;1.90;;;;;;;;;;13030392;22;20178;-79
2021/05/22 01:24:50;;;;;;;6.70;2.20;;;;;;;;;;13033981;22;20478;-80
2021/05/22 01:29:55;;;;;;;6.10;1.80;;;;;;;;;;13031755;22;20208;-80
2021/05/22 01:34:59;;;;;;;5.10;1.57;;;;;;;;;;13032263;22;20300;-80
2021/05/22 01:40:04;;;;;;;5.50;1.70;;;;;;;;;;13032538;22;20170;-79
2021/05/22 01:45:10;;;;;;;6.27;1.90;;;;;;;;;;13033336;22;20177;-79
2021/05/22 01:50:16;;;;;;;7.90;1.63;;;;;;;;;;13029811;22;20521;-79
2021/05/22 01:55:23;;;;;;;6.33;1.67;;;;;;;;;;13032893;22;20674;-78
2021/05/22 02:00:29;;;;;;;4.77;1.80;;;;;;;;;;13031626;22;20185;-79
2021/05/22 02:05:34;;;;;;;6.93;1.50;;;;;;;;;;13030093;22;20206;-79
2021/05/22 02:10:40;;;;;;;6.20;1.70;;;;;;;;;;13033922;22;20642;-79
2021/05/22 02:15:47;;;;;;;6.23;1.60;;;;;;;;;;13033851;22;20177;-79
2021/05/22 02:20:54;;;;;;;3.23;1.57;;;;;;;;;;13030717;22;20173;-79
2021/05/22 02:26:01;;;;;;;4.67;1.50;;;;;;;;;;13034615;22;20181;-79
2021/05/22 02:31:06;;;;;;;4.53;1.70;;;;;;;;;;13028724;22;20678;-79
2021/05/22 02:36:12;;;;;;;7.60;1.90;;;;;;;;;;13036126;22;20427;-79
2021/05/22 02:41:17;;;;;;;6.23;1.77;;;;;;;;;;13030886;22;20184;-79
2021/05/22 02:46:27;;;;;;;5.03;1.60;;;;;;;;;;13030878;22;20244;-79
2021/05/22 02:51:32;;;;;;;3.93;1.63;;;;;;;;;;13031796;22;20665;-78
2021/05/22 02:56:53;;;;;;;6.97;2.07;;;;;;;;;;13035568;22;20524;-78
2021/05/22 03:01:57;;;;;;;4.40;1.50;;;;;;;;;;13027545;22;20193;-79
2021/05/22 03:07:02;;;;;;;6.57;1.60;;;;;;;;;;13034815;22;20519;-78
2021/05/22 03:12:06;;;;;;;7.33;1.60;;;;;;;;;;13033783;22;20541;-79
2021/05/22 03:17:11;;;;;;;8.23;2.03;;;;;;;;;;13035104;22;20916;-79
2021/05/22 03:22:19;;;;;;;6.30;1.80;;;;;;;;;;13032941;22;20240;-78
2021/05/22 03:27:22;;;;;;;6.00;1.50;;;;;;;;;;13033377;22;20201;-80
2021/05/22 03:32:30;;;;;;;4.43;1.40;;;;;;;;;;13030595;22;20515;-79
2021/05/22 03:37:38;;;;;;;5.73;1.60;;;;;;;;;;13036559;22;20564;-80
2021/05/22 03:42:44;;;;;;;6.10;1.50;;;;;;;;;;13015634;22;20165;-80
2021/05/22 03:47:48;;;;;;;6.30;1.47;;;;;;;;;;13035012;22;20549;-79
2021/05/22 03:52:51;;;;;;;5.03;1.40;;;;;;;;;;13017654;22;20517;-80
2021/05/22 03:58:22;;;;;;;4.77;1.60;;;;;;;;;;13036002;22;20178;-80
2021/05/22 04:03:34;;;;;;;5.60;1.70;;;;;;;;;;13009117;22;20204;-80
2021/05/22 04:08:37;;;;;;;4.17;1.60;;;;;;;;;;13037548;22;20535;-80
2021/05/22 04:13:39;;;;;;;5.47;1.60;;;;;;;;;;13036187;22;20233;-79
2021/05/22 04:18:44;;;;;;;2.40;1.27;;;;;;;;;;13033965;22;20181;-78
2021/05/22 04:23:47;;;;;;;3.70;1.53;;;;;;;;;;13036887;22;20695;-78
2021/05/22 04:28:51;;;;;;;4.93;1.70;;;;;;;;;;13034284;22;20216;-77
2021/05/22 04:33:56;;;;;;;4.97;1.60;;;;;;;;;;13033299;22;20257;-78
2021/05/22 04:38:59;;;;;;;6.20;1.77;;;;;;;;;;13034303;22;20177;-78
2021/05/22 04:44:04;;;;;;;3.20;1.60;;;;;;;;;;13034450;22;20526;-78
2021/05/22 04:49:09;;;;;;;5.47;1.70;;;;;;;;;;13030459;22;20216;-78
2021/05/22 04:54:13;;;;;;;4.70;1.50;;;;;;;;;;13034870;22;20517;-79
2021/05/22 04:59:16;;;;;;;5.27;1.50;;;;;;;;;;13032877;22;20174;-79
2021/05/22 05:04:24;;;;;;;6.10;1.40;;;;;;;;;;13032805;22;20259;-79
2021/05/22 05:09:28;;;;;;;3.93;1.30;;;;;;;;;;13035796;22;20229;-79
2021/05/22 05:14:34;;;;;;;4.73;1.90;;;;;;;;;;13036099;22;20181;-79
2021/05/22 05:19:38;;;;;;;4.97;1.60;;;;;;;;;;13031477;22;20260;-79
2021/05/22 05:24:43;;;;;;;5.33;1.63;;;;;;;;;;13035572;22;21025;-78
2021/05/22 05:29:48;;;;;;;7.07;1.70;;;;;;;;;;13032917;22;20584;-78
2021/05/22 05:34:52;;;;;;;4.87;1.60;;;;;;;;;;13031871;22;20178;-79
2021/05/22 05:39:55;;;;;;;5.47;1.50;;;;;;;;;;13035369;22;20575;-83
2021/05/22 05:44:57;;;;;;;7.40;1.60;;;;;;;;;;13015173;22;20281;-85
2021/05/22 05:50:01;;;;;;;4.93;1.63;;;;;;;;;;13010489;22;20228;-83
2021/05/22 05:55:03;;;;;;;3.03;1.30;;;;;;;;;;13009999;22;20201;-82
2021/05/22 06:00:07;;;;;;;5.43;1.70;;;;;;;;;;13012476;22;20186;-82
2021/05/22 06:05:10;;;;;;;6.43;1.50;;;;;;;;;;13027829;22;20511;-82
2021/05/22 06:10:13;;;;;;;9.80;1.83;;;;;;;;;;13034008;22;20676;-79
2021/05/22 06:15:24;;;;;;;8.73;1.70;;;;;;;;;;13009824;22;20178;-78
2021/05/22 06:20:28;;;;;;;7.77;2.03;;;;;;;;;;13031028;22;20188;-77
2021/05/22 06:25:31;;;;;;;6.07;2.07;;;;;;;;;;13011352;22;20212;-84
2021/05/22 06:30:34;;;;;;;5.73;1.60;;;;;;;;;;13031339;22;20209;-81
2021/05/22 06:35:37;;;;;;;6.77;1.63;;;;;;;;;;13007341;22;20173;-82
2021/05/22 06:40:39;;;;;;;3.63;1.40;;;;;;;;;;13035589;22;20254;-82
2021/05/22 06:45:43;;;;;;;2.37;1.37;;;;;;;;;;13033109;22;20256;-80
2021/05/22 06:50:46;;;;;;;3.63;1.40;;;;;;;;;;13036780;22;20748;-80
2021/05/22 06:55:49;;;;;;;6.63;1.87;;;;;;;;;;13011553;22;20281;-80
2021/05/22 07:00:51;;;;;;;6.70;1.60;;;;;;;;;;13012585;22;20192;-80
2021/05/22 07:05:57;;;;;;;3.67;1.40;;;;;;;;;;13033746;22;20236;-80
2021/05/22 07:10:59;;;;;;;4.63;1.20;;;;;;;;;;13037066;22;20184;-80
2021/05/22 07:16:01;;;;;;;3.80;1.50;;;;;;;;;;13016619;22;20184;-82
2021/05/22 07:21:05;;;;;;;4.47;1.53;;;;;;;;;;13036893;22;20203;-81
2021/05/22 07:26:08;;;;;;;4.13;1.50;;;;;;;;;;13016875;22;20597;-80
2021/05/22 07:31:11;;;;;;;4.33;1.63;;;;;;;;;;13034075;22;20205;-80
2021/05/22 07:36:14;;;;;;;2.83;1.33;;;;;;;;;;13039975;22;20272;-80
2021/05/22 07:41:16;;;;;;;3.80;1.47;;;;;;;;;;13037583;22;20202;-79
2021/05/22 07:46:19;;;;;;;4.10;1.40;;;;;;;;;;13037036;22;20666;-80
2021/05/22 07:51:22;;;;;;;5.20;1.70;;;;;;;;;;13037567;22;20533;-81
2021/05/22 07:56:25;;;;;;;6.00;1.70;;;;;;;;;;13038422;22;20581;-80
2021/05/22 08:01:27;;;;;;;3.80;1.30;;;;;;;;;;13034422;22;20728;-81
2021/05/22 08:06:31;;;;;;;4.37;1.53;;;;;;;;;;13042016;22;20192;-81
2021/05/22 08:11:33;;;;;;;2.47;1.40;;;;;;;;;;13035530;22;20534;-81
2021/05/22 08:16:36;;;;;;;3.60;1.40;;;;;;;;;;13038305;22;20181;-81
2021/05/22 08:21:40;;;;;;;2.93;1.60;;;;;;;;;;13014786;22;20176;-80
2021/05/22 08:26:43;;;;;;;4.10;1.70;;;;;;;;;;13037119;22;20178;-81
2021/05/22 08:32:06;;;;;;;2.47;1.30;;;;;;;;;;13013134;22;20208;-81
2021/05/22 08:37:11;;;;;;;3.03;1.60;;;;;;;;;;13035097;22;20177;-80
2021/05/22 08:42:15;;;;;;;4.73;1.30;;;;;;;;;;13037915;22;20630;-79
2021/05/22 08:47:18;;;;;;;3.57;1.40;;;;;;;;;;13032004;22;20177;-79
2021/05/22 08:52:22;;;;;;;1.30;1.20;;;;;;;;;;13038680;22;20455;-82
2021/05/22 08:57:25;;;;;;;1.57;1.10;;;;;;;;;;13035477;22;20550;-80
2021/05/22 09:02:27;;;;;;;6.00;1.30;;;;;;;;;;13033523;22;20202;-80
2021/05/22 09:07:31;;;;;;;2.57;1.30;;;;;;;;;;13035364;22;20185;-80
2021/05/22 09:12:35;;;;;;;2.80;1.40;;;;;;;;;;13036328;22;20235;-81
2021/05/22 09:17:38;;;;;;;2.93;1.27;;;;;;;;;;13011604;22;20178;-80
2021/05/22 09:22:42;;;;;;;3.27;1.30;;;;;;;;;;13014939;22;20188;-80
2021/05/22 09:27:44;;;;;;;2.40;1.30;;;;;;;;;;13014811;22;20178;-79
2021/05/22 09:32:47;;;;;;;3.13;1.27;;;;;;;;;;13012767;22;20205;-80
2021/05/22 09:37:50;;;;;;;2.67;1.30;;;;;;;;;;13034314;22;20542;-81
2021/05/22 09:42:53;;;;;;;4.77;1.40;;;;;;;;;;13036339;22;20184;-80
2021/05/22 09:47:57;;;;;;;3.37;1.30;;;;;;;;;;13031599;22;20582;-82
2021/05/22 09:53:01;;;;;;;3.00;1.30;;;;;;;;;;13014849;22;20309;-81
2021/05/22 09:58:04;;;;;;;3.47;1.50;;;;;;;;;;13034180;22;20545;-81
2021/05/22 10:03:06;;;;;;;4.30;1.37;;;;;;;;;;13032699;22;20581;-81
2021/05/22 10:08:18;;;;;;;3.03;1.20;;;;;;;;;;13011838;22;20351;-81
2021/05/22 10:13:21;;;;;;;2.77;1.20;;;;;;;;;;13035324;22;20216;-81
2021/05/22 10:18:28;;;;;;;2.63;1.10;;;;;;;;;;13031800;22;20173;-81
2021/05/22 10:23:31;;;;;;;3.13;1.20;;;;;;;;;;13035063;22;20927;-81
2021/05/22 10:28:34;;;;;;;3.63;1.30;;;;;;;;;;13013099;22;20208;-81
2021/05/22 10:33:36;;;;;;;3.13;1.30;;;;;;;;;;13032281;22;20887;-82
2021/05/22 10:38:44;;;;;;;2.40;1.20;;;;;;;;;;13034119;22;20199;-81
2021/05/22 10:43:47;;;;;;;3.40;1.30;;;;;;;;;;13035867;22;20623;-81
2021/05/22 10:48:50;;;;;;;4.80;1.53;;;;;;;;;;13012437;22;20178;-82
2021/05/22 10:53:55;;;;;;;5.13;1.53;;;;;;;;;;13034218;22;20256;-81
2021/05/22 10:59:14;;;;;;;5.80;1.83;;;;;;;;;;13013999;22;20258;-83
2021/05/22 11:04:31;;;;;;;3.27;1.50;;;;;;;;;;13031096;22;20201;-80
2021/05/22 11:09:51;;;;;;;4.07;1.63;;;;;;;;;;13036642;22;20205;-80
2021/05/22 11:14:55;;;;;;;4.20;2.00;;;;;;;;;;13034758;22;20181;-82
2021/05/22 11:20:16;;;;;;;9.13;2.20;;;;;;;;;;13033810;22;20174;-82
2021/05/22 11:25:20;;;;;;;6.17;1.70;;;;;;;;;;13035426;22;20173;-80
2021/05/22 11:30:43;;;;;;;6.13;1.80;;;;;;;;;;13037170;22;20208;-83
2021/05/22 11:35:47;;;;;;;5.97;1.83;;;;;;;;;;13011827;22;20236;-81
2021/05/22 11:40:51;;;;;;;7.40;1.80;;;;;;;;;;13035444;22;20708;-82
2021/05/22 11:45:54;;;;;;;4.33;2.00;;;;;;;;;;13033267;22;20177;-82
2021/05/22 11:51:07;;;;;;;5.60;1.80;;;;;;;;;;13013782;22;20198;-84
2021/05/22 11:56:13;;;;;;;4.50;1.80;;;;;;;;;;13035362;22;20184;-81
2021/05/22 12:01:17;;;;;;;3.50;1.57;;;;;;;;;;13016310;22;20172;-82
2021/05/22 12:06:23;;;;;;;6.43;2.20;;;;;;;;;;13023894;22;20268;-80
2021/05/22 12:11:29;;;;;;;4.17;1.57;;;;;;;;;;13018361;22;20214;-81
2021/05/22 12:16:32;;;;;;;5.27;1.80;;;;;;;;;;13035137;22;20201;-80
2021/05/22 12:21:34;;;;;;;4.80;1.80;;;;;;;;;;13020699;22;20273;-80
2021/05/22 12:26:38;;;;;;;7.50;2.13;;;;;;;;;;13015271;22;20645;-80
2021/05/22 12:31:46;;;;;;;4.83;2.00;;;;;;;;;;13017356;22;20208;-81
2021/05/22 12:37:00;;;;;;;4.53;1.83;;;;;;;;;;13017990;22;20165;-80
2021/05/22 12:42:17;;;;;;;4.33;1.90;;;;;;;;;;13041249;22;20177;-81
2021/05/22 12:47:22;;;;;;;4.83;1.60;;;;;;;;;;13035404;22;20204;-80
2021/05/22 12:52:25;;;;;;;6.77;1.70;;;;;;;;;;13038464;22;20205;-81
2021/05/22 12:57:36;;;;;;;5.30;2.17;;;;;;;;;;13015436;22;20227;-81
2021/05/22 13:02:47;;;;;;;5.53;1.77;;;;;;;;;;13037046;22;20506;-80
2021/05/22 13:07:50;;;;;;;7.13;2.30;;;;;;;;;;13032778;22;20200;-81
2021/05/22 13:13:01;;;;;;;6.53;1.93;;;;;;;;;;13033998;22;20276;-81
2021/05/22 13:18:05;;;;;;;6.27;2.20;;;;;;;;;;13034560;22;20181;-79
2021/05/22 13:23:08;;;;;;;6.63;2.17;;;;;;;;;;13017320;22;20177;-80
2021/05/22 13:28:13;;;;;;;6.37;1.97;;;;;;;;;;13036515;22;20201;-81
2021/05/22 13:33:15;;;;;;;6.43;1.93;;;;;;;;;;13011958;22;20516;-80
2021/05/22 13:38:18;;;;;;;5.07;1.80;;;;;;;;;;13035808;22;20219;-82
2021/05/22 13:43:21;;;;;;;6.43;1.90;;;;;;;;;;13035658;22;20172;-81
2021/05/22 13:48:24;;;;;;;6.27;1.70;;;;;;;;;;13033957;22;20265;-82
2021/05/22 13:53:26;;;;;;;8.20;1.73;;;;;;;;;;13038271;22;20669;-82
2021/05/22 13:58:29;;;;;;;9.10;1.83;;;;;;;;;;13035665;22;20205;-81
2021/05/22 14:03:32;;;;;;;4.50;1.50;;;;;;;;;;13034478;22;20618;-80
2021/05/22 14:08:34;;;;;;;4.87;1.60;;;;;;;;;;13012506;22;20189;-81
2021/05/22 14:13:38;;;;;;;3.50;1.53;;;;;;;;;;13014651;22;20282;-80
2021/05/22 14:18:40;;;;;;;4.03;1.70;;;;;;;;;;13009096;22;20171;-82
2021/05/22 14:23:42;;;;;;;5.10;1.60;;;;;;;;;;13014798;22;20170;-80
2021/05/22 14:28:46;;;;;;;5.10;1.60;;;;;;;;;;13033289;22;20265;-82
2021/05/22 14:33:48;;;;;;;4.43;1.40;;;;;;;;;;13032604;22;20201;-80
2021/05/22 14:38:50;;;;;;;3.67;1.40;;;;;;;;;;13016738;22;20180;-81
2021/05/22 14:43:54;;;;;;;6.27;1.70;;;;;;;;;;13037226;22;20355;-82
2021/05/22 14:48:56;;;;;;;4.93;1.50;;;;;;;;;;13005876;22;20181;-82
2021/05/22 14:53:58;;;;;;;4.17;1.60;;;;;;;;;;13010808;22;20200;-83
2021/05/22 14:59:02;;;;;;;3.00;1.47;;;;;;;;;;13015087;22;20188;-82
2021/05/22 15:04:05;;;;;;;6.23;1.83;;;;;;;;;;13014290;22;20205;-82
2021/05/22 15:09:07;;;;;;;3.07;1.50;;;;;;;;;;13010893;22;20241;-81
2021/05/22 15:14:10;;;;;;;4.00;1.60;;;;;;;;;;13031197;22;20210;-81
2021/05/22 15:19:13;;;;;;;4.67;1.87;;;;;;;;;;13010111;22;20174;-85
2021/05/22 15:24:15;;;;;;;4.70;1.90;;;;;;;;;;13028907;22;20423;-82
2021/05/22 15:29:18;;;;;;;4.57;2.07;;;;;;;;;;13030316;22;20174;-79
2021/05/22 15:34:23;;;;;;;6.17;1.80;;;;;;;;;;13031264;22;20205;-80
2021/05/22 15:39:26;;;;;;;4.67;1.70;;;;;;;;;;13033946;22;20181;-79
2021/05/22 15:44:33;;;;;;;4.13;1.60;;;;;;;;;;13031592;22;20656;-78
2021/05/22 15:50:12;;;;;;;3.87;1.80;;;;;;;;;;13032642;22;20885;-78
2021/05/22 16:00:50;;;;;;;4.80;1.60;;;;;;;;;;13029115;22;20174;-83
2021/05/22 16:05:52;;;;;;;5.23;1.50;;;;;;;;;;13007602;22;20715;-85
2021/05/22 16:10:54;;;;;;;6.00;1.87;;;;;;;;;;13030520;22;20692;-85
2021/05/22 16:15:58;;;;;;;3.83;1.60;;;;;;;;;;13026144;22;20173;-82
2021/05/22 16:21:00;;;;;;;5.40;1.73;;;;;;;;;;13009313;22;20713;-84
2021/05/22 16:26:03;;;;;;;3.80;1.30;;;;;;;;;;13008481;22;20495;-84
2021/05/22 16:31:06;;;;;;;6.17;1.87;;;;;;;;;;13030334;22;20738;-83
2021/05/22 16:36:09;;;;;;;4.00;1.83;;;;;;;;;;13017371;22;20220;-82
2021/05/22 16:41:12;;;;;;;4.80;1.60;;;;;;;;;;13009925;22;20710;-82
2021/05/22 16:46:15;;;;;;;5.40;1.70;;;;;;;;;;13030013;22;20181;-82
2021/05/22 16:51:18;;;;;;;5.37;1.83;;;;;;;;;;13033178;22;21002;-83
2021/05/22 16:56:22;;;;;;;6.13;1.90;;;;;;;;;;13032123;22;20192;-82
2021/05/22 17:01:25;;;;;;;6.00;2.00;;;;;;;;;;13032220;22;20212;-82
2021/05/22 17:06:28;;;;;;;4.83;1.80;;;;;;;;;;13033346;22;20536;-83
2021/05/22 17:11:30;;;;;;;7.70;2.00;;;;;;;;;;13014600;22;20206;-81
2021/05/22 17:16:33;;;;;;;9.57;2.30;;;;;;;;;;13030148;22;20492;-81
2021/05/22 17:21:36;;;;;;;9.03;2.07;;;;;;;;;;13037334;22;20261;-82
2021/05/22 17:26:38;;;;;;;10.27;2.20;;;;;;;;;;13011943;22;20174;-82
2021/05/22 17:31:42;;;;;;;9.80;2.00;;;;;;;;;;13033654;22;20197;-82
2021/05/22 17:36:44;;;;;;;7.53;2.20;;;;;;;;;;13012652;22;20186;-81
2021/05/22 17:41:47;;;;;;;8.87;2.40;;;;;;;;;;13035158;22;20527;-82
2021/05/22 17:46:50;;;;;;;8.40;2.47;;;;;;;;;;13008695;22;20174;-82
2021/05/22 17:51:53;;;;;;;11.37;2.40;;;;;;;;;;13035324;22;20212;-81
2021/05/22 17:56:55;;;;;;;9.30;2.20;;;;;;;;;;13031875;22;20180;-84
2021/05/22 18:01:59;;;;;;;10.67;2.13;;;;;;;;;;13010359;22;21081;-82
2021/05/22 18:07:01;;;;;;;6.87;2.03;;;;;;;;;;13011267;22;20193;-82
2021/05/22 18:12:04;;;;;;;10.10;2.37;;;;;;;;;;13034496;22;20897;-81
2021/05/22 18:17:07;;;;;;;7.23;2.10;;;;;;;;;;13011455;22;20166;-83
2021/05/22 18:22:10;;;;;;;8.63;2.40;;;;;;;;;;13029436;22;20733;-81
2021/05/22 18:27:12;;;;;;;10.77;2.50;;;;;;;;;;13033427;22;20574;-81
2021/05/22 18:32:16;;;;;;;6.57;2.20;;;;;;;;;;13029076;22;20213;-81
2021/05/22 18:37:19;;;;;;;8.73;2.47;;;;;;;;;;13013825;22;20174;-81
2021/05/22 18:42:22;;;;;;;8.67;2.77;;;;;;;;;;13032286;22;20182;-82
2021/05/22 18:47:27;;;;;;;8.40;2.30;;;;;;;;;;13012131;22;20180;-84
2021/05/22 18:52:30;;;;;;;8.70;2.70;;;;;;;;;;13013995;22;20208;-81
2021/05/22 18:57:33;;;;;;;11.33;3.07;;;;;;;;;;13035761;22;20235;-82
2021/05/22 19:02:37;;;;;;;9.20;2.70;;;;;;;;;;13029448;22;20198;-81
2021/05/22 19:07:40;;;;;;;8.40;2.70;;;;;;;;;;13037788;22;20196;-82
2021/05/22 19:12:43;;;;;;;11.23;2.70;;;;;;;;;;13015049;22;20319;-83
2021/05/22 19:17:47;;;;;;;6.63;2.00;;;;;;;;;;13034744;22;20531;-82
2021/05/22 19:22:49;;;;;;;11.03;2.60;;;;;;;;;;13034963;22;20193;-80
2021/05/22 19:27:52;;;;;;;8.33;2.57;;;;;;;;;;13039964;22;20205;-82
2021/05/22 19:32:55;;;;;;;11.63;2.80;;;;;;;;;;13032126;22;21143;-82
2021/05/22 19:37:57;;;;;;;10.13;2.40;;;;;;;;;;13037646;22;20178;-81
2021/05/22 19:43:02;;;;;;;9.97;2.70;;;;;;;;;;13035952;22;20176;-84
2021/05/22 19:48:06;;;;;;;12.73;2.90;;;;;;;;;;13032342;22;20708;-84
2021/05/22 19:53:08;;;;;;;9.43;2.90;;;;;;;;;;13035344;22;20209;-83
2021/05/22 19:58:11;;;;;;;9.07;2.80;;;;;;;;;;13021023;22;20698;-83
2021/05/22 20:03:14;;;;;;;13.00;2.40;;;;;;;;;;13010579;22;20204;-82
2021/05/22 20:08:16;;;;;;;9.53;3.00;;;;;;;;;;13032931;22;20273;-84
2021/05/22 20:13:19;;;;;;;10.80;3.10;;;;;;;;;;13034305;22;20236;-83
2021/05/22 20:18:23;;;;;;;11.10;2.80;;;;;;;;;;13029439;22;20776;-82
2021/05/22 20:23:26;;;;;;;11.27;2.60;;;;;;;;;;13035076;22;20235;-82
2021/05/22 20:28:29;;;;;;;11.27;2.87;;;;;;;;;;13033636;22;20174;-82
2021/05/22 20:33:34;;;;;;;9.73;2.57;;;;;;;;;;13015851;22;20634;-81
2021/05/22 20:38:36;;;;;;;8.10;2.73;;;;;;;;;;13033419;22;20263;-81
2021/05/22 20:43:39;;;;;;;10.87;2.60;;;;;;;;;;13034753;22;20257;-83
2021/05/22 20:48:42;;;;;;;10.33;2.83;;;;;;;;;;13020230;22;21039;-83
2021/05/22 20:53:45;;;;;;;9.67;2.43;;;;;;;;;;13014231;22;20240;-81
2021/05/22 20:58:48;;;;;;;9.10;2.60;;;;;;;;;;13013010;22;21014;-81
2021/05/22 21:03:52;;;;;;;8.97;2.37;;;;;;;;;;13011999;22;20197;-81
2021/05/22 21:08:55;;;;;;;8.23;2.13;;;;;;;;;;13032597;22;20181;-81
2021/05/22 21:13:58;;;;;;;7.37;2.70;;;;;;;;;;13034065;22;20243;-81
2021/05/22 21:19:01;;;;;;;9.23;2.47;;;;;;;;;;13031013;22;20748;-80
2021/05/22 21:24:05;;;;;;;11.47;2.70;;;;;;;;;;13034944;22;20693;-80
2021/05/22 21:29:07;;;;;;;11.50;2.77;;;;;;;;;;13009478;22;21002;-79
2021/05/22 21:34:11;;;;;;;9.77;2.80;;;;;;;;;;13025969;22;20213;-82
2021/05/22 21:39:14;;;;;;;10.97;2.67;;;;;;;;;;13032173;22;20212;-84
2021/05/22 21:44:17;;;;;;;9.53;2.90;;;;;;;;;;13032981;22;20360;-83
2021/05/22 21:49:22;;;;;;;10.30;2.70;;;;;;;;;;13032121;22;20269;-82
2021/05/22 21:54:24;;;;;;;12.33;3.30;;;;;;;;;;13012319;22;20482;-83
2021/05/22 21:59:27;;;;;;;9.83;2.57;;;;;;;;;;13030632;22;20177;-82
2021/05/22 22:04:31;;;;;;;8.43;2.57;;;;;;;;;;13027158;22;20201;-82
2021/05/22 22:09:33;;;;;;;9.20;2.53;;;;;;;;;;13031612;22;20680;-83
2021/05/22 22:14:36;;;;;;;9.27;2.70;;;;;;;;;;13030139;22;20204;-82
2021/05/22 22:19:39;;;;;;;14.87;2.80;;;;;;;;;;13027958;22;20695;-83
2021/05/22 22:24:42;;;;;;;7.57;2.60;;;;;;;;;;13033849;22;20173;-82
2021/05/22 22:29:44;;;;;;;14.67;3.53;;;;;;;;;;13010026;22;20252;-82
2021/05/22 22:34:53;;;;;;;11.17;2.57;;;;;;;;;;13022158;22;20209;-83
2021/05/22 22:39:56;;;;;;;11.63;2.80;;;;;;;;;;13030031;22;20252;-82
2021/05/22 22:44:58;;;;;;;14.10;3.17;;;;;;;;;;13029435;22;20178;-83
2021/05/22 22:50:02;;;;;;;15.00;3.30;;;;;;;;;;13006984;22;20174;-83
2021/05/22 22:55:05;;;;;;;10.37;2.80;;;;;;;;;;13030377;22;20205;-82
2021/05/22 23:00:10;;;;;;;8.13;2.77;;;;;;;;;;13029900;22;20216;-82
2021/05/22 23:05:13;;;;;;;9.80;2.83;;;;;;;;;;13005829;22;20712;-82
2021/05/22 23:10:17;;;;;;;16.00;3.27;;;;;;;;;;13030799;22;20623;-82
2021/05/22 23:15:20;;;;;;;10.13;3.30;;;;;;;;;;13029005;22;20224;-83
2021/05/22 23:20:24;;;;;;;14.40;3.30;;;;;;;;;;13007296;22;20173;-82
2021/05/22 23:25:27;;;;;;;8.13;2.63;;;;;;;;;;13030213;22;20173;-83
2021/05/22 23:30:31;;;;;;;12.03;3.13;;;;;;;;;;13028176;22;20635;-82
2021/05/22 23:35:34;;;;;;;7.87;2.83;;;;;;;;;;13026723;22;20278;-83
2021/05/22 23:40:38;;;;;;;10.53;3.20;;;;;;;;;;13026412;22;20265;-82
2021/05/22 23:45:41;;;;;;;10.43;2.90;;;;;;;;;;13027431;22;20204;-83
2021/05/22 23:50:46;;;;;;;13.07;3.40;;;;;;;;;;13026700;22;20174;-83
2021/05/22 23:55:48;;;;;;;10.33;3.20;;;;;;;;;;13014917;22;20519;-83
